This is the latest recevied weather packets stored in our database for station/object SP5IZJ-2. If no packets are shown the sender has not sent any weather packets the latest 10 day(s).
| Time | Temp. | Humidity | Pressure | Rain* | Wind** | Luminosity | Snow |
|---|---|---|---|---|---|---|---|
| 1777590937 | 8.33° C | 57% | 1019.7 hPa | 0 mm | - | - | - |
| 1777589260 | 7.78° C | 61% | 1019.8 hPa | 0 mm | - | - | - |
| 1777588838 | 7.78° C | 62% | 1019.8 hPa | 0 mm | - | - | - |
| 1777588418 | 7.78° C | 62% | 1019.8 hPa | 0 mm | - | - | - |
| 1777587583 | 7.22° C | 60% | 1019.8 hPa | 0 mm | - | - | - |
| 1777587159 | 7.22° C | 58% | 1019.9 hPa | 0 mm | - | - | - |
| 1777586739 | 7.22° C | 56% | 1019.8 hPa | 0 mm | - | - | - |
| 1777585060 | 7.78° C | 53% | 1020 hPa | 0 mm | - | - | - |
| 1777584640 | 8.33° C | 53% | 1019.8 hPa | 0 mm | - | - | - |
| 1777582961 | 8.33° C | 51% | 1019.8 hPa | 0 mm | - | - | - |
| 1777582121 | 8.33° C | 51% | 1020.1 hPa | 0 mm | - | - | - |
| 1777581281 | 8.33° C | 52% | 1020.2 hPa | 0 mm | - | - | - |
| 1777580022 | 8.33° C | 48% | 1020 hPa | 0 mm | - | - | - |
| 1777579182 | 8.33° C | 49% | 1020.2 hPa | 0 mm | - | - | - |
| 1777578351 | 8.33° C | 49% | 1020.2 hPa | 0 mm | - | - | - |
| 1777577923 | 8.33° C | 48% | 1020.3 hPa | 0 mm | - | - | - |
| 1777576663 | 8.33° C | 47% | 1020.2 hPa | 0 mm | - | - | - |
| 1777575449 | 7.78° C | 46% | 1020.1 hPa | 0 mm | - | - | - |
| 1777574609 | 8.33° C | 44% | 1020.2 hPa | 0 mm | - | - | - |
| 1777571625 | 9.44° C | 38% | 1020.3 hPa | 0 mm | - | - | - |
| 1777571206 | 10° C | 37% | 1020.1 hPa | 0 mm | - | - | - |
| 1777570366 | 11.11° C | 36% | 1020.3 hPa | 0 mm | - | - | - |
| 1777569946 | 11.67° C | 34% | 1020.2 hPa | 0 mm | - | - | - |
| 1777567847 | 17.78° C | 29% | 1020.2 hPa | 0 mm | - | - | - |
| 1777566594 | 15° C | 31% | 1020.3 hPa | 0 mm | - | - | - |
* Rain latest hour (hover to see other rain measurements)
** Current wind speed in m/s (hover to see current wind gust speed)